Time;durP1;ratioP1;P1;durP2;ratioP2;P2;SDS_P1;SDS_P2;PMS_P1;PMS_P2;Temp;Humidity;BMP_temperature;BMP_pressure;BME280_temperature;BME280_humidity;BME280_pressure;Samples;Min_cycle;Max_cycle;Signal;HPM_P1;HPM_P2
2022/12/20 00:00:50;;;;;;;2.13;1.60;;;;;15.20;101089.00;;;;5078503;28;20195;-75
2022/12/20 00:03:18;;;;;;;1.98;1.27;;;;;15.30;101090.00;;;;5075201;28;20215;-75
2022/12/20 00:05:46;;;;;;;2.05;1.55;;;;;15.30;101103.00;;;;5070424;28;20645;-75
2022/12/20 00:08:13;;;;;;;4.75;1.73;;;;;15.30;101090.00;;;;5087502;28;20279;-75
2022/12/20 00:10:42;;;;;;;3.17;1.80;;;;;15.30;101100.00;;;;5073935;28;20202;-75
2022/12/20 00:13:10;;;;;;;3.85;1.40;;;;;15.40;101102.00;;;;5070120;28;20195;-75
2022/12/20 00:15:39;;;;;;;1.92;1.60;;;;;15.30;101101.00;;;;5070644;28;20218;-75
2022/12/20 00:18:06;;;;;;;2.25;1.75;;;;;15.40;101104.00;;;;5071371;28;20202;-75
2022/12/20 00:20:34;;;;;;;2.60;1.65;;;;;15.40;101101.00;;;;5075855;28;20198;-76
2022/12/20 00:23:01;;;;;;;2.95;1.80;;;;;15.40;101103.00;;;;5083313;28;20308;-76
2022/12/20 00:25:28;;;;;;;3.75;1.73;;;;;15.50;101100.00;;;;5078708;28;20705;-75
2022/12/20 00:27:56;;;;;;;4.28;1.58;;;;;15.50;101099.00;;;;5074825;28;20191;-76
2022/12/20 00:30:23;;;;;;;2.53;1.48;;;;;15.50;101086.00;;;;5075388;28;20202;-75
2022/12/20 00:32:51;;;;;;;2.50;1.73;;;;;15.50;101092.00;;;;5078216;28;20206;-75
2022/12/20 00:35:19;;;;;;;3.05;1.80;;;;;15.50;101079.00;;;;5075240;28;20198;-76
2022/12/20 00:37:46;;;;;;;1.95;1.40;;;;;15.60;101078.00;;;;5088286;28;20230;-75
2022/12/20 00:40:13;;;;;;;2.83;1.88;;;;;15.60;101070.00;;;;5072025;28;20210;-75
2022/12/20 00:42:41;;;;;;;2.65;1.70;;;;;15.60;101072.00;;;;5081256;28;20229;-76
2022/12/20 00:45:09;;;;;;;4.45;1.58;;;;;15.60;101081.00;;;;5072969;28;20194;-76
2022/12/20 00:47:36;;;;;;;2.55;1.45;;;;;15.60;101071.00;;;;5072262;28;20579;-76
2022/12/20 00:50:06;;;;;;;2.47;2.13;;;;;15.60;101074.00;;;;5068911;28;20199;-76
2022/12/20 00:52:33;;;;;;;2.75;1.38;;;;;15.70;101074.00;;;;5075200;28;20410;-75
2022/12/20 00:55:00;;;;;;;1.70;1.27;;;;;15.70;101076.00;;;;5074413;28;20213;-76
2022/12/20 00:57:28;;;;;;;1.83;1.63;;;;;15.70;101062.00;;;;5085675;28;20198;-76
2022/12/20 00:59:55;;;;;;;1.83;1.33;;;;;15.70;101078.00;;;;5084586;28;20544;-75
2022/12/20 01:02:22;;;;;;;3.05;1.58;;;;;15.80;101069.00;;;;5069812;28;20223;-76
2022/12/20 01:04:49;;;;;;;2.40;1.40;;;;;15.80;101070.00;;;;5069306;28;20202;-76
2022/12/20 01:07:19;;;;;;;2.03;1.40;;;;;15.80;101070.00;;;;5081711;28;20214;-75
2022/12/20 01:09:46;;;;;;;2.85;1.48;;;;;15.80;101074.00;;;;5082479;28;20720;-76
2022/12/20 01:12:13;;;;;;;2.47;1.42;;;;;15.90;101077.00;;;;5075940;28;20259;-75
2022/12/20 01:14:41;;;;;;;2.55;1.60;;;;;15.90;101073.00;;;;5088827;28;20202;-75
2022/12/20 01:17:08;;;;;;;1.55;1.38;;;;;15.90;101067.00;;;;5083077;28;20285;-75
2022/12/20 01:19:35;;;;;;;1.60;1.30;;;;;15.90;101072.00;;;;5069777;28;20546;-76
2022/12/20 01:22:02;;;;;;;2.25;1.55;;;;;15.90;101074.00;;;;5074041;28;20225;-76
2022/12/20 01:24:31;;;;;;;2.00;1.25;;;;;15.90;101081.00;;;;5074072;28;20199;-75
2022/12/20 01:26:58;;;;;;;1.70;1.10;;;;;15.90;101074.00;;;;5071809;28;20190;-75
2022/12/20 01:29:25;;;;;;;1.85;1.30;;;;;15.90;101072.00;;;;5083602;28;20194;-75
2022/12/20 01:31:53;;;;;;;2.70;1.67;;;;;15.90;101075.00;;;;5076864;28;20194;-75
2022/12/20 01:34:20;;;;;;;1.35;1.17;;;;;15.90;101072.00;;;;5074610;28;20596;-76
2022/12/20 01:36:48;;;;;;;1.50;1.35;;;;;15.90;101070.00;;;;5080203;28;20226;-76
2022/12/20 01:39:18;;;;;;;1.90;1.58;;;;;15.90;101070.00;;;;5086444;28;20316;-76
2022/12/20 01:41:46;;;;;;;1.65;1.40;;;;;15.90;101065.00;;;;5071933;28;20616;-76
2022/12/20 01:44:54;;;;;;;2.40;1.65;;;;;15.70;101059.00;;;;5078026;28;20782;-76
2022/12/20 01:47:22;;;;;;;3.03;1.20;;;;;15.80;101049.00;;;;5073102;28;20202;-76
2022/12/20 01:49:55;;;;;;;1.90;1.50;;;;;15.80;101041.00;;;;5076473;28;20201;-76
2022/12/20 01:52:28;;;;;;;1.92;1.67;;;;;15.80;101029.00;;;;5069372;28;20207;-76
2022/12/20 01:55:03;;;;;;;2.00;1.33;;;;;15.80;101035.00;;;;5081176;28;20195;-76
2022/12/20 01:57:36;;;;;;;2.33;1.73;;;;;15.70;101035.00;;;;5076208;28;20276;-76
2022/12/20 02:00:07;;;;;;;4.22;1.48;;;;;15.70;101037.00;;;;5071783;28;20206;-76
2022/12/20 02:02:35;;;;;;;2.63;1.90;;;;;15.70;101032.00;;;;5068091;28;20287;-76
2022/12/20 02:05:02;;;;;;;3.15;1.58;;;;;15.70;101030.00;;;;5068579;28;20218;-76
2022/12/20 02:07:34;;;;;;;2.28;1.45;;;;;15.70;101029.00;;;;5071964;28;20206;-76
2022/12/20 02:10:02;;;;;;;1.33;1.23;;;;;15.70;101022.00;;;;5067544;28;20195;-76
2022/12/20 02:12:38;;;;;;;2.38;1.60;;;;;15.60;101018.00;;;;5066783;28;20195;-76
2022/12/20 02:15:24;;;;;;;2.45;1.38;;;;;15.60;101012.00;;;;5067895;28;20244;-76
2022/12/20 02:18:00;;;;;;;2.42;1.70;;;;;15.60;101007.00;;;;5067445;28;20196;-75
2022/12/20 02:20:52;;;;;;;4.22;1.67;;;;;15.60;101011.00;;;;5071651;28;20198;-76
2022/12/20 02:24:03;;;;;;;1.45;1.30;;;;;15.50;101020.00;;;;5078124;28;20218;-75
2022/12/20 02:27:06;;;;;;;1.92;1.27;;;;;15.50;101013.00;;;;5079796;28;20194;-76
2022/12/20 02:29:40;;;;;;;5.80;2.00;;;;;15.50;101018.00;;;;5074531;28;20659;-75
2022/12/20 02:32:14;;;;;;;2.20;1.30;;;;;15.50;101027.00;;;;5068350;28;20254;-75
2022/12/20 02:34:43;;;;;;;2.75;1.67;;;;;15.60;101009.00;;;;5068463;28;20269;-75
2022/12/20 02:37:10;;;;;;;1.70;1.40;;;;;15.60;101006.00;;;;5067806;28;20238;-75
2022/12/20 02:39:40;;;;;;;2.58;1.95;;;;;15.50;100998.00;;;;5067868;28;20194;-75
2022/12/20 02:42:10;;;;;;;2.05;1.65;;;;;15.50;100998.00;;;;5075511;28;20199;-76
2022/12/20 02:47:30;;;;;;;3.30;1.40;;;;;15.50;101003.00;;;;5076920;28;20216;-75
2022/12/20 02:49:58;;;;;;;2.83;1.70;;;;;15.60;100996.00;;;;5067693;28;20183;-75
2022/12/20 02:52:29;;;;;;;2.35;1.58;;;;;15.50;101003.00;;;;5067330;28;20195;-75
2022/12/20 02:54:58;;;;;;;2.83;1.80;;;;;15.50;101002.00;;;;5081914;28;20690;-75
2022/12/20 02:57:29;;;;;;;2.28;1.63;;;;;15.50;100997.00;;;;5078107;28;20195;-75
2022/12/20 03:00:03;;;;;;;1.88;1.60;;;;;15.50;100994.00;;;;5077694;28;20781;-75
2022/12/20 03:03:21;;;;;;;2.05;1.52;;;;;15.50;100995.00;;;;5067479;28;20195;-75
2022/12/20 03:05:23;;;;;;;2.30;1.40;;;;;15.50;100985.00;;;;5083199;28;20219;-75
2022/12/20 03:07:50;;;;;;;2.70;1.50;;;;;15.50;100982.00;;;;5075751;28;20205;-75
2022/12/20 03:10:19;;;;;;;2.15;1.42;;;;;15.50;100994.00;;;;5067360;28;20461;-75
2022/12/20 03:12:46;;;;;;;3.33;2.15;;;;;15.50;101000.00;;;;5067248;28;20572;-75
2022/12/20 03:15:13;;;;;;;2.70;1.58;;;;;15.50;100992.00;;;;5068058;28;20209;-76
2022/12/20 03:17:42;;;;;;;1.70;1.50;;;;;15.50;100994.00;;;;5071623;28;20195;-75
2022/12/20 03:20:11;;;;;;;2.10;1.30;;;;;15.50;100992.00;;;;5078582;28;20194;-76
2022/12/20 03:22:38;;;;;;;1.70;1.60;;;;;15.50;100993.00;;;;5085979;28;20254;-75
2022/12/20 03:25:06;;;;;;;3.15;1.65;;;;;15.50;100993.00;;;;5083147;28;20206;-76
2022/12/20 03:27:33;;;;;;;1.90;1.42;;;;;15.40;100985.00;;;;5088281;28;20194;-75
2022/12/20 03:30:00;;;;;;;1.70;1.60;;;;;15.40;100986.00;;;;5077460;28;20195;-76
2022/12/20 03:32:28;;;;;;;1.67;1.30;;;;;15.40;100988.00;;;;5074693;28;20199;-75
2022/12/20 03:34:56;;;;;;;1.77;1.48;;;;;15.40;100997.00;;;;5077697;28;20198;-76
2022/12/20 03:37:24;;;;;;;3.35;1.95;;;;;15.40;100989.00;;;;5076952;28;20230;-75
2022/12/20 03:39:51;;;;;;;2.15;1.60;;;;;15.40;100980.00;;;;5089308;28;20201;-75
2022/12/20 03:42:19;;;;;;;2.45;1.67;;;;;15.50;100982.00;;;;5081216;28;20190;-75
2022/12/20 03:44:46;;;;;;;1.50;1.15;;;;;15.50;100973.00;;;;5073450;28;20217;-75
2022/12/20 03:47:13;;;;;;;3.53;1.80;;;;;15.50;100971.00;;;;5070354;28;20195;-75
2022/12/20 03:49:40;;;;;;;2.08;1.50;;;;;15.50;100979.00;;;;5082763;28;20638;-76
2022/12/20 03:52:11;;;;;;;1.98;1.60;;;;;15.50;100986.00;;;;5076522;28;20656;-75
2022/12/20 03:54:39;;;;;;;1.80;1.50;;;;;15.60;100985.00;;;;5085055;28;20652;-75
2022/12/20 03:57:07;;;;;;;3.10;1.70;;;;;15.60;100974.00;;;;5077873;28;20735;-75
2022/12/20 03:59:34;;;;;;;3.17;1.58;;;;;15.60;100979.00;;;;5080759;28;20198;-76
2022/12/20 04:02:02;;;;;;;2.72;1.75;;;;;15.60;100965.00;;;;5081113;28;20194;-75
2022/12/20 04:04:30;;;;;;;2.70;1.50;;;;;15.60;100959.00;;;;5087551;28;20222;-75
2022/12/20 04:06:57;;;;;;;3.58;1.80;;;;;15.60;100961.00;;;;5075041;28;20210;-75
2022/12/20 04:09:26;;;;;;;3.28;1.80;;;;;15.60;100953.00;;;;5084588;28;20664;-75
2022/12/20 04:11:53;;;;;;;2.33;1.60;;;;;15.70;100952.00;;;;5079959;28;20202;-75
2022/12/20 04:14:20;;;;;;;2.38;1.52;;;;;15.70;100954.00;;;;5073633;28;20203;-75
2022/12/20 04:16:47;;;;;;;3.85;2.00;;;;;15.70;100959.00;;;;5075330;28;20203;-76
2022/12/20 04:19:15;;;;;;;2.20;1.45;;;;;15.70;100957.00;;;;5069537;28;20206;-76
2022/12/20 04:21:42;;;;;;;1.70;1.40;;;;;15.70;100948.00;;;;5087021;28;20191;-76
2022/12/20 04:24:09;;;;;;;1.55;1.27;;;;;15.70;100946.00;;;;5074236;28;20222;-75
2022/12/20 04:26:38;;;;;;;2.20;1.48;;;;;15.70;100946.00;;;;5074724;28;20198;-75
2022/12/20 04:29:05;;;;;;;3.45;1.90;;;;;15.80;100942.00;;;;5072892;28;20206;-75
2022/12/20 04:31:33;;;;;;;1.70;1.25;;;;;15.80;100942.00;;;;5071449;28;20188;-76
2022/12/20 04:34:00;;;;;;;2.40;1.63;;;;;15.80;100948.00;;;;5067471;28;20562;-75
2022/12/20 04:36:27;;;;;;;2.00;1.50;;;;;15.80;100939.00;;;;5075736;28;20230;-75
2022/12/20 04:38:54;;;;;;;2.25;1.48;;;;;15.90;100941.00;;;;5076741;28;20586;-75
2022/12/20 04:41:22;;;;;;;2.30;1.50;;;;;15.90;100943.00;;;;5079327;28;20191;-76
2022/12/20 04:43:52;;;;;;;3.08;1.58;;;;;15.90;100949.00;;;;5069263;28;20215;-76
2022/12/20 04:46:21;;;;;;;1.75;1.42;;;;;15.90;100952.00;;;;5069069;28;20199;-76
2022/12/20 04:48:48;;;;;;;2.22;1.38;;;;;15.90;100953.00;;;;5073574;28;20187;-76
2022/12/20 04:51:15;;;;;;;4.03;1.75;;;;;15.90;100950.00;;;;5077869;28;20191;-76
2022/12/20 04:53:48;;;;;;;2.58;2.05;;;;;15.90;100944.00;;;;5082645;28;20190;-76
2022/12/20 04:56:17;;;;;;;2.33;1.90;;;;;15.90;100940.00;;;;5072263;28;20267;-76
2022/12/20 04:58:45;;;;;;;1.92;1.27;;;;;15.90;100934.00;;;;5072143;28;20191;-76
2022/12/20 05:01:14;;;;;;;2.40;1.67;;;;;15.90;100943.00;;;;5085895;28;20210;-76
2022/12/20 05:03:42;;;;;;;2.70;1.60;;;;;16.00;100928.00;;;;5079831;28;20734;-76
2022/12/20 05:06:09;;;;;;;1.63;1.40;;;;;16.00;100931.00;;;;5080908;28;20199;-76
2022/12/20 05:08:37;;;;;;;2.58;1.63;;;;;16.00;100935.00;;;;5081600;28;20225;-75
2022/12/20 05:11:05;;;;;;;2.00;1.42;;;;;16.00;100922.00;;;;5087207;28;20194;-75
2022/12/20 05:13:33;;;;;;;2.50;1.52;;;;;16.00;100923.00;;;;5076416;28;20194;-76
2022/12/20 05:16:00;;;;;;;2.70;1.63;;;;;16.00;100909.00;;;;5078558;28;20229;-75
2022/12/20 05:18:29;;;;;;;3.53;1.60;;;;;16.00;100919.00;;;;5075430;28;20527;-76
2022/12/20 05:26:28;;;;;;;2.90;1.70;;;;;16.00;100903.00;;;;5077087;28;20504;-76
2022/12/20 05:28:56;;;;;;;2.05;1.45;;;;;16.10;100903.00;;;;5080641;28;20195;-76
2022/12/20 05:31:23;;;;;;;1.88;1.38;;;;;16.10;100900.00;;;;5069292;28;20195;-76
2022/12/20 05:33:52;;;;;;;2.67;1.67;;;;;16.10;100892.00;;;;5087161;28;20190;-75
2022/12/20 05:36:20;;;;;;;2.05;1.40;;;;;16.10;100886.00;;;;5071868;28;20922;-76
2022/12/20 05:38:47;;;;;;;1.88;1.55;;;;;16.10;100888.00;;;;5071483;28;20514;-76
2022/12/20 05:41:15;;;;;;;2.33;1.48;;;;;16.10;100877.00;;;;5069273;28;20835;-76
2022/12/20 05:43:42;;;;;;;2.42;1.35;;;;;16.10;100886.00;;;;5068110;28;20218;-76
2022/12/20 05:46:10;;;;;;;2.50;1.40;;;;;16.10;100882.00;;;;5078275;28;20201;-75
2022/12/20 05:48:37;;;;;;;1.40;1.23;;;;;16.10;100878.00;;;;5072263;28;20648;-75
2022/12/20 05:51:06;;;;;;;3.10;1.48;;;;;16.10;100875.00;;;;5083560;28;20195;-76
2022/12/20 05:53:33;;;;;;;2.03;1.52;;;;;16.10;100876.00;;;;5069651;28;20191;-75
2022/12/20 05:56:01;;;;;;;1.02;0.93;;;;;16.10;100876.00;;;;5071086;28;20202;-76
2022/12/20 05:58:28;;;;;;;1.33;1.15;;;;;16.10;100873.00;;;;5069219;28;20203;-76
2022/12/20 06:00:56;;;;;;;1.70;1.40;;;;;16.20;100874.00;;;;5070054;28;20195;-76
2022/12/20 06:03:23;;;;;;;1.90;1.50;;;;;16.20;100868.00;;;;5068071;28;20222;-76
2022/12/20 06:05:50;;;;;;;2.95;1.40;;;;;16.20;100846.00;;;;5069579;28;20201;-76
2022/12/20 06:08:20;;;;;;;1.70;1.35;;;;;16.20;100847.00;;;;5082748;28;20202;-76
2022/12/20 06:10:48;;;;;;;1.98;1.17;;;;;16.20;100835.00;;;;5069841;28;20206;-76
2022/12/20 06:13:18;;;;;;;1.75;1.40;;;;;16.20;100834.00;;;;5066747;28;20195;-76
2022/12/20 06:15:45;;;;;;;2.40;1.95;;;;;16.20;100834.00;;;;5072780;28;20206;-76
2022/12/20 06:18:12;;;;;;;2.00;1.20;;;;;16.20;100834.00;;;;5068003;28;20203;-76
2022/12/20 06:20:40;;;;;;;1.63;1.33;;;;;16.20;100827.00;;;;5081498;28;20263;-76
2022/12/20 06:23:08;;;;;;;1.42;1.20;;;;;16.20;100835.00;;;;5079748;28;20202;-76
2022/12/20 06:25:38;;;;;;;2.08;1.40;;;;;16.20;100848.00;;;;5070093;28;20219;-76
2022/12/20 06:28:06;;;;;;;1.95;1.40;;;;;16.20;100845.00;;;;5074325;28;20202;-76
2022/12/20 06:30:34;;;;;;;1.33;1.17;;;;;16.20;100834.00;;;;5074505;28;20236;-76
2022/12/20 06:33:02;;;;;;;3.17;1.50;;;;;16.20;100844.00;;;;5074434;28;20661;-76
2022/12/20 06:35:29;;;;;;;2.33;1.63;;;;;16.30;100853.00;;;;5069484;28;20198;-76
2022/12/20 06:37:57;;;;;;;1.88;1.55;;;;;16.30;100850.00;;;;5073713;28;20226;-76
2022/12/20 06:40:24;;;;;;;2.33;1.58;;;;;16.30;100862.00;;;;5071098;28;20205;-76
2022/12/20 06:42:53;;;;;;;2.15;1.58;;;;;16.30;100853.00;;;;5069777;28;20210;-76
2022/12/20 06:45:20;;;;;;;3.13;1.27;;;;;16.30;100852.00;;;;5076063;28;20226;-76
2022/12/20 06:47:48;;;;;;;2.15;1.40;;;;;16.30;100845.00;;;;5068427;28;20203;-76
2022/12/20 06:50:15;;;;;;;1.75;1.05;;;;;16.30;100844.00;;;;5066708;28;20202;-75
2022/12/20 06:52:42;;;;;;;2.33;1.20;;;;;16.30;100848.00;;;;5075626;28;20845;-76
2022/12/20 06:55:09;;;;;;;2.42;1.27;;;;;16.30;100847.00;;;;5071993;28;20198;-75
2022/12/20 06:57:37;;;;;;;2.05;1.30;;;;;16.30;100861.00;;;;5079010;28;20205;-75
2022/12/20 07:00:07;;;;;;;8.98;1.52;;;;;16.30;100852.00;;;;5083129;28;20194;-75
2022/12/20 07:02:34;;;;;;;2.17;1.25;;;;;16.30;100857.00;;;;5075762;28;20198;-76
2022/12/20 07:05:01;;;;;;;3.00;1.30;;;;;16.40;100850.00;;;;5084151;28;20223;-75
2022/12/20 07:07:29;;;;;;;3.55;1.35;;;;;16.40;100847.00;;;;5084918;28;20205;-76
2022/12/20 07:09:56;;;;;;;1.30;1.00;;;;;16.40;100848.00;;;;5077323;28;20196;-75
2022/12/20 07:12:23;;;;;;;2.90;1.30;;;;;16.40;100847.00;;;;5082227;28;20195;-76
2022/12/20 07:14:50;;;;;;;2.22;1.10;;;;;16.40;100853.00;;;;5080246;28;20207;-76
2022/12/20 07:17:19;;;;;;;1.40;1.10;;;;;16.40;100852.00;;;;5077281;28;20215;-75
2022/12/20 07:19:46;;;;;;;2.45;1.15;;;;;16.40;100859.00;;;;5079805;28;20657;-75
2022/12/20 07:22:13;;;;;;;1.60;1.13;;;;;16.50;100856.00;;;;5070734;28;20466;-75
2022/12/20 07:24:41;;;;;;;1.33;0.80;;;;;16.50;100859.00;;;;5071573;28;20579;-75
2022/12/20 07:27:10;;;;;;;1.60;1.42;;;;;16.50;100857.00;;;;5078567;28;20205;-75
2022/12/20 07:29:39;;;;;;;1.10;1.00;;;;;16.50;100857.00;;;;5090904;28;20679;-75
2022/12/20 07:32:06;;;;;;;2.83;1.35;;;;;16.50;100855.00;;;;5077581;28;20568;-75
2022/12/20 07:34:37;;;;;;;1.50;1.00;;;;;16.50;100846.00;;;;5070702;28;20226;-75
2022/12/20 07:37:04;;;;;;;2.03;1.25;;;;;16.50;100852.00;;;;5088183;28;20229;-76
2022/12/20 07:39:31;;;;;;;4.25;1.15;;;;;16.60;100857.00;;;;5090381;28;20198;-76
2022/12/20 07:41:59;;;;;;;1.63;0.90;;;;;16.60;100856.00;;;;5089047;28;20193;-75
2022/12/20 07:44:26;;;;;;;2.20;1.35;;;;;16.60;100855.00;;;;5089391;28;20218;-75
2022/12/20 07:46:53;;;;;;;1.48;0.90;;;;;16.60;100867.00;;;;5085510;28;20279;-75
2022/12/20 07:49:21;;;;;;;1.45;1.00;;;;;16.60;100867.00;;;;5085066;28;20198;-75
2022/12/20 07:51:53;;;;;;;2.20;1.10;;;;;16.60;100867.00;;;;5091295;28;20244;-75
2022/12/20 07:54:24;;;;;;;2.88;1.15;;;;;16.60;100872.00;;;;5078273;28;20203;-75
2022/12/20 07:56:56;;;;;;;2.53;1.00;;;;;16.60;100867.00;;;;5070943;28;20199;-75
2022/12/20 07:59:28;;;;;;;1.92;1.00;;;;;16.60;100877.00;;;;5075365;28;20205;-75
2022/12/20 08:01:56;;;;;;;1.50;1.27;;;;;16.60;100877.00;;;;5070873;28;20767;-75
2022/12/20 08:04:26;;;;;;;1.55;1.10;;;;;16.60;100876.00;;;;5085089;28;20565;-75
2022/12/20 08:06:58;;;;;;;3.35;1.00;;;;;16.60;100872.00;;;;5088593;28;20194;-75
2022/12/20 08:09:29;;;;;;;1.73;1.08;;;;;16.60;100873.00;;;;5090082;28;20194;-75
2022/12/20 08:11:59;;;;;;;1.30;0.77;;;;;16.60;100862.00;;;;5078676;28;20568;-76
2022/12/20 08:14:26;;;;;;;1.73;1.25;;;;;16.70;100859.00;;;;5069780;28;20202;-76
2022/12/20 08:16:54;;;;;;;5.55;1.40;;;;;16.70;100862.00;;;;5076130;28;20215;-75
2022/12/20 08:19:21;;;;;;;1.52;1.20;;;;;16.70;100855.00;;;;5085314;28;20195;-76
2022/12/20 08:21:48;;;;;;;2.00;0.90;;;;;16.60;100867.00;;;;5073277;28;20194;-75
2022/12/20 08:24:17;;;;;;;3.25;1.50;;;;;16.60;100863.00;;;;5069212;28;20571;-75
2022/12/20 08:26:44;;;;;;;2.33;1.52;;;;;16.60;100856.00;;;;5070221;28;20198;-75
2022/12/20 08:29:11;;;;;;;1.80;1.00;;;;;16.70;100864.00;;;;5079366;28;20199;-75
2022/12/20 08:31:39;;;;;;;3.42;0.80;;;;;16.60;100852.00;;;;5075328;28;20191;-75
2022/12/20 08:34:06;;;;;;;1.60;1.02;;;;;16.60;100853.00;;;;5077438;28;20213;-76
2022/12/20 08:36:34;;;;;;;1.88;0.88;;;;;16.60;100857.00;;;;5086718;28;20651;-75
2022/12/20 08:39:02;;;;;;;1.60;1.00;;;;;16.60;100860.00;;;;5073250;28;20199;-75
2022/12/20 08:41:31;;;;;;;1.45;0.80;;;;;16.60;100863.00;;;;5089881;28;20202;-76
2022/12/20 08:43:58;;;;;;;1.90;0.90;;;;;16.70;100859.00;;;;5089247;28;20205;-75
2022/12/20 08:46:26;;;;;;;1.55;0.95;;;;;16.70;100852.00;;;;5080547;28;20587;-75
2022/12/20 08:48:53;;;;;;;2.88;1.25;;;;;16.60;100855.00;;;;5090215;28;20656;-76
2022/12/20 08:51:20;;;;;;;1.90;1.00;;;;;16.60;100849.00;;;;5080780;28;20195;-76
2022/12/20 08:53:47;;;;;;;1.90;1.20;;;;;16.60;100857.00;;;;5083366;28;20194;-76
2022/12/20 08:56:17;;;;;;;1.20;0.93;;;;;16.60;100860.00;;;;5086578;28;20208;-75
2022/12/20 08:58:46;;;;;;;1.88;1.10;;;;;16.60;100865.00;;;;5078068;28;20199;-77
2022/12/20 09:01:15;;;;;;;2.38;1.23;;;;;16.60;100851.00;;;;5072190;28;20195;-75
2022/12/20 09:03:43;;;;;;;1.67;1.10;;;;;16.60;100861.00;;;;5069445;28;20195;-75
2022/12/20 09:06:12;;;;;;;2.05;0.80;;;;;16.50;100858.00;;;;5078020;28;20599;-75
2022/12/20 09:08:40;;;;;;;1.30;1.00;;;;;16.50;100851.00;;;;5090042;28;20197;-75
2022/12/20 09:11:10;;;;;;;1.85;1.40;;;;;16.50;100856.00;;;;5088934;28;20235;-75
2022/12/20 09:13:38;;;;;;;1.52;1.38;;;;;16.50;100846.00;;;;5081250;28;20621;-75
2022/12/20 09:16:08;;;;;;;1.83;1.20;;;;;16.50;100851.00;;;;5069163;28;20234;-75
2022/12/20 09:18:35;;;;;;;1.65;0.98;;;;;16.50;100854.00;;;;5074124;28;20197;-75
2022/12/20 09:21:05;;;;;;;1.90;1.00;;;;;16.50;100844.00;;;;5082160;28;20194;-76
2022/12/20 09:23:34;;;;;;;2.03;0.98;;;;;16.50;100858.00;;;;5079996;28;20587;-75
2022/12/20 09:26:03;;;;;;;2.47;1.30;;;;;16.50;100846.00;;;;5070513;28;20704;-75
2022/12/20 09:28:31;;;;;;;1.80;1.40;;;;;16.40;100847.00;;;;5069659;28;20259;-76
2022/12/20 09:30:59;;;;;;;2.28;1.35;;;;;16.40;100845.00;;;;5070922;28;20210;-76
2022/12/20 09:33:28;;;;;;;2.33;1.20;;;;;16.40;100843.00;;;;5077599;28;20207;-76
2022/12/20 09:35:56;;;;;;;1.83;1.15;;;;;16.40;100849.00;;;;5068038;28;20622;-76
2022/12/20 09:38:23;;;;;;;2.03;1.38;;;;;16.40;100854.00;;;;5068863;28;20203;-76
2022/12/20 09:40:54;;;;;;;1.52;1.13;;;;;16.40;100853.00;;;;5071756;28;20209;-76
2022/12/20 09:43:22;;;;;;;1.38;1.15;;;;;16.40;100857.00;;;;5082098;28;20201;-76
2022/12/20 09:45:53;;;;;;;1.65;1.17;;;;;16.40;100857.00;;;;5074045;28;20235;-76
2022/12/20 09:48:25;;;;;;;1.48;1.05;;;;;16.40;100861.00;;;;5072387;28;20195;-76
2022/12/20 09:51:05;;;;;;;4.05;1.70;;;;;16.30;100860.00;;;;5069517;28;20202;-77
2022/12/20 09:53:41;;;;;;;1.30;0.90;;;;;16.30;100858.00;;;;5082230;28;20209;-77
2022/12/20 09:56:13;;;;;;;2.58;1.30;;;;;16.30;100861.00;;;;5074702;28;20273;-77
2022/12/20 09:59:00;;;;;;;2.05;1.10;;;;;16.30;100863.00;;;;5080284;28;20194;-78
2022/12/20 10:01:29;;;;;;;2.35;1.15;;;;;16.30;100865.00;;;;5068448;28;20599;-79
2022/12/20 10:03:59;;;;;;;1.48;1.15;;;;;16.30;100872.00;;;;5071485;28;20211;-78
2022/12/20 10:06:39;;;;;;;1.23;1.10;;;;;16.20;100867.00;;;;5088081;28;20217;-78
2022/12/20 10:09:13;;;;;;;2.55;1.23;;;;;16.30;100872.00;;;;5068412;28;20194;-78
2022/12/20 10:11:57;;;;;;;2.40;1.20;;;;;16.20;100859.00;;;;5068412;28;20190;-78
2022/12/20 10:14:39;;;;;;;3.30;0.95;;;;;16.30;100860.00;;;;5068442;28;20575;-78
2022/12/20 10:17:13;;;;;;;2.03;1.23;;;;;16.30;100857.00;;;;5068136;28;20207;-79
2022/12/20 10:20:03;;;;;;;1.95;1.45;;;;;16.20;100860.00;;;;5068083;28;20209;-79
2022/12/20 10:22:38;;;;;;;1.85;1.13;;;;;16.30;100863.00;;;;5083340;28;20201;-79
2022/12/20 10:25:19;;;;;;;2.35;1.23;;;;;16.20;100852.00;;;;5070655;28;20242;-78
2022/12/20 10:27:49;;;;;;;3.42;1.15;;;;;16.30;100850.00;;;;5069278;28;20206;-77
2022/12/20 10:30:19;;;;;;;1.70;1.10;;;;;16.30;100846.00;;;;5081071;28;20202;-79
2022/12/20 10:32:50;;;;;;;3.90;1.77;;;;;16.30;100848.00;;;;5082352;28;20202;-78
2022/12/20 10:35:24;;;;;;;1.98;1.23;;;;;16.20;100850.00;;;;5073157;28;20199;-78
2022/12/20 10:38:01;;;;;;;2.70;1.23;;;;;16.20;100849.00;;;;5074502;28;20225;-78
2022/12/20 10:40:31;;;;;;;2.90;0.90;;;;;16.30;100844.00;;;;5083005;28;20209;-79
2022/12/20 10:42:59;;;;;;;2.50;1.27;;;;;16.30;100843.00;;;;5074258;28;20677;-79
2022/12/20 10:45:35;;;;;;;2.28;1.38;;;;;16.30;100843.00;;;;5075364;28;20703;-77
2022/12/20 10:48:05;;;;;;;1.60;1.48;;;;;16.30;100837.00;;;;5083858;28;20194;-78
2022/12/20 10:50:33;;;;;;;1.58;1.13;;;;;16.30;100832.00;;;;5072975;28;20224;-78
2022/12/20 10:53:23;;;;;;;2.80;1.30;;;;;16.20;100827.00;;;;5072418;28;20195;-78
2022/12/20 10:55:51;;;;;;;1.45;1.00;;;;;16.30;100835.00;;;;5084660;28;20209;-78
2022/12/20 10:58:30;;;;;;;1.80;1.30;;;;;16.30;100833.00;;;;5104027;28;20194;-78
2022/12/20 11:01:12;;;;;;;2.17;1.13;;;;;16.30;100821.00;;;;5083589;28;20690;-78
2022/12/20 11:03:56;;;;;;;3.05;1.40;;;;;16.20;100822.00;;;;5091162;28;20213;-78
2022/12/20 11:06:26;;;;;;;0.77;0.63;;;;;16.30;100817.00;;;;5089881;28;20225;-77
2022/12/20 11:09:10;;;;;;;2.28;1.55;;;;;16.30;100821.00;;;;5091519;28;20197;-78
2022/12/20 11:11:37;;;;;;;2.28;1.30;;;;;16.30;100811.00;;;;5090392;28;20194;-77
2022/12/20 11:14:15;;;;;;;2.25;1.52;;;;;16.30;100811.00;;;;5071103;28;20340;-78
2022/12/20 11:16:46;;;;;;;2.88;1.20;;;;;16.30;100809.00;;;;5071752;28;20231;-78
2022/12/20 11:19:36;;;;;;;2.88;1.48;;;;;16.20;100800.00;;;;5071733;28;20201;-78
2022/12/20 11:22:14;;;;;;;2.08;1.83;;;;;16.30;100799.00;;;;5071809;28;20711;-77
2022/12/20 11:24:52;;;;;;;1.75;1.30;;;;;16.30;100797.00;;;;5071157;28;20649;-78
2022/12/20 11:27:27;;;;;;;2.55;1.30;;;;;16.30;100800.00;;;;5096360;28;20197;-78
2022/12/20 11:30:12;;;;;;;2.03;1.20;;;;;16.30;100805.00;;;;5075251;28;20199;-78
2022/12/20 11:33:03;;;;;;;5.53;2.47;;;;;16.30;100800.00;;;;5083886;28;20222;-78
2022/12/20 11:35:45;;;;;;;2.20;1.25;;;;;16.30;100804.00;;;;5087389;28;21040;-77
2022/12/20 11:38:23;;;;;;;1.40;1.17;;;;;16.40;100788.00;;;;5071199;28;20203;-78
2022/12/20 11:41:00;;;;;;;2.35;1.55;;;;;16.40;100796.00;;;;5071499;28;20201;-78
2022/12/20 11:43:46;;;;;;;2.13;1.25;;;;;16.40;100790.00;;;;5072591;28;20207;-78
2022/12/20 11:46:27;;;;;;;4.10;1.25;;;;;16.40;100787.00;;;;5081319;28;20230;-77
2022/12/20 11:49:37;;;;;;;2.33;1.80;;;;;16.30;100797.00;;;;5081905;28;20397;-76
2022/12/20 11:52:10;;;;;;;3.28;1.17;;;;;16.40;100785.00;;;;4992713;28;20199;-78
2022/12/20 11:54:43;;;;;;;1.50;1.10;;;;;16.40;100789.00;;;;4993053;28;20336;-77
2022/12/20 11:57:20;;;;;;;3.75;1.73;;;;;16.40;100795.00;;;;5037403;28;20715;-77
2022/12/20 11:59:54;;;;;;;2.28;1.35;;;;;16.40;100786.00;;;;5069015;28;20198;-77
2022/12/20 12:02:27;;;;;;;2.55;2.30;;;;;16.40;100788.00;;;;5076243;28;20194;-78
2022/12/20 12:05:01;;;;;;;2.22;1.38;;;;;16.40;100790.00;;;;5076444;28;20210;-77
2022/12/20 12:07:31;;;;;;;1.83;1.40;;;;;16.40;100782.00;;;;5080108;28;20193;-77
2022/12/20 12:10:03;;;;;;;2.15;1.65;;;;;16.40;100778.00;;;;5081013;28;20222;-77
2022/12/20 12:12:35;;;;;;;3.35;2.00;;;;;16.40;100784.00;;;;5073956;28;20214;-78
2022/12/20 12:15:06;;;;;;;1.35;1.25;;;;;16.50;100777.00;;;;5082120;28;20203;-78
2022/12/20 12:17:42;;;;;;;2.58;1.52;;;;;16.40;100777.00;;;;5075730;28;20229;-78
2022/12/20 12:20:23;;;;;;;2.20;1.60;;;;;16.40;100778.00;;;;5073357;28;20202;-77
2022/12/20 12:22:55;;;;;;;3.33;1.77;;;;;16.50;100768.00;;;;5079732;28;20202;-78
2022/12/20 12:25:22;;;;;;;2.03;1.50;;;;;16.50;100777.00;;;;5083171;28;20201;-77
2022/12/20 12:27:51;;;;;;;2.20;1.70;;;;;16.50;100771.00;;;;5090444;28;20209;-78
2022/12/20 12:30:18;;;;;;;2.10;1.58;;;;;16.50;100772.00;;;;5074773;28;20660;-78
2022/12/20 12:32:52;;;;;;;2.38;1.80;;;;;16.50;100777.00;;;;5070876;28;20199;-77